RUK9AE LEAL-EGCC
Flight info
| Callsign | RUK9AE |
|---|---|
| Flight time | 2h 21m |
| Altitude | 34000 |
| Route | MITOS N608 COMPI Y90 USKAR N863 GIROM DCT AGN DCT SECHE DCT UVELI DCT CNA DCT TUPAR UY120 AKIKI UN867 AVANT UM184 HEMEL T420 ELVOS |
| Aircraft | B738/M-SDE2E3FGHIRWXY/LB1 |
Departure
| Time | 2026-05-07 19:00 |
|---|---|
| Airport | Alicante-Elche Miguel Hernández Airport (LEAL) |
Arrival
| Time | 2026-05-07 21:21 |
|---|---|
| Airport | Manchester Airport (EGCC) |
| Time | Latitude | Longitude | Altitude | Speed | Heading |
|---|---|---|---|---|---|
| 2026-05-07 18:41 | 38.28603 | -0.55854 | 98 ft | 0 kts | 10° |
| 2026-05-07 18:48 | 38.28596 | -0.55856 | 97 ft | 4 kts | 9° |
| 2026-05-07 18:48 | 38.28569 | -0.55859 | 100 ft | 4 kts | 355° |
| 2026-05-07 18:48 | 38.28544 | -0.55851 | 97 ft | 4 kts | 323° |
| 2026-05-07 18:49 | 38.28533 | -0.55833 | 96 ft | 0 kts | 279° |
| 2026-05-07 18:50 | 38.28533 | -0.55835 | 96 ft | 3 kts | 279° |
| 2026-05-07 18:50 | 38.28535 | -0.55850 | 96 ft | 1 kts | 279° |
| 2026-05-07 18:51 | 38.28545 | -0.55921 | 98 ft | 14 kts | 280° |
| 2026-05-07 18:51 | 38.28515 | -0.56019 | 101 ft | 13 kts | 197° |
| 2026-05-07 18:51 | 38.28436 | -0.56060 | 106 ft | 13 kts | 251° |
| 2026-05-07 18:51 | 38.28446 | -0.56183 | 107 ft | 19 kts | 280° |
| 2026-05-07 18:52 | 38.28469 | -0.56346 | 111 ft | 18 kts | 280° |
| 2026-05-07 18:52 | 38.28491 | -0.56504 | 116 ft | 18 kts | 279° |
| 2026-05-07 18:52 | 38.28512 | -0.56657 | 120 ft | 17 kts | 280° |
| 2026-05-07 18:52 | 38.28532 | -0.56803 | 124 ft | 17 kts | 279° |
| 2026-05-07 18:53 | 38.28552 | -0.56945 | 133 ft | 16 kts | 280° |
| 2026-05-07 18:53 | 38.28571 | -0.57081 | 139 ft | 15 kts | 281° |
| 2026-05-07 18:53 | 38.28590 | -0.57211 | 144 ft | 15 kts | 280° |
| 2026-05-07 18:53 | 38.28607 | -0.57337 | 149 ft | 14 kts | 277° |
| 2026-05-07 18:54 | 38.28562 | -0.57425 | 153 ft | 13 kts | 194° |
| 2026-05-07 18:54 | 38.28543 | -0.57430 | 153 ft | 0 kts | 191° |
| 2026-05-07 18:58 | 38.28518 | -0.57436 | 154 ft | 13 kts | 192° |
| 2026-05-07 18:59 | 38.28444 | -0.57416 | 153 ft | 10 kts | 117° |
| 2026-05-07 18:59 | 38.28433 | -0.57350 | 149 ft | 0 kts | 101° |
| 2026-05-07 18:59 | 38.28432 | -0.57344 | 149 ft | 5 kts | 101° |
| 2026-05-07 18:59 | 38.28379 | -0.56969 | 132 ft | 86 kts | 100° |
| 2026-05-07 19:00 | 38.28262 | -0.55882 | 122 ft | 158 kts | 96° |
| 2026-05-07 19:00 | 38.28056 | -0.54347 | 631 ft | 186 kts | 99° |
| 2026-05-07 19:00 | 38.27779 | -0.52682 | 1521 ft | 198 kts | 101° |
| 2026-05-07 19:00 | 38.27483 | -0.50962 | 2458 ft | 195 kts | 100° |
| 2026-05-07 19:01 | 38.27377 | -0.49324 | 3245 ft | 188 kts | 74° |
| 2026-05-07 19:01 | 38.28024 | -0.47836 | 3611 ft | 197 kts | 54° |
| 2026-05-07 19:01 | 38.28795 | -0.46362 | 4038 ft | 202 kts | 56° |
| 2026-05-07 19:01 | 38.29568 | -0.44866 | 4489 ft | 203 kts | 56° |
| 2026-05-07 19:02 | 38.30354 | -0.43352 | 4934 ft | 205 kts | 56° |
| 2026-05-07 19:02 | 38.31148 | -0.41826 | 5340 ft | 208 kts | 56° |
| 2026-05-07 19:02 | 38.31916 | -0.40352 | 6133 ft | 189 kts | 55° |
| 2026-05-07 19:02 | 38.32610 | -0.39015 | 6898 ft | 183 kts | 56° |
| 2026-05-07 19:03 | 38.33165 | -0.37555 | 7490 ft | 182 kts | 66° |
| 2026-05-07 19:03 | 38.33620 | -0.36055 | 8093 ft | 180 kts | 67° |
| 2026-05-07 19:03 | 38.34078 | -0.34544 | 8514 ft | 192 kts | 67° |
| 2026-05-07 19:03 | 38.34590 | -0.32873 | 8703 ft | 211 kts | 67° |
| 2026-05-07 19:04 | 38.35149 | -0.31060 | 8870 ft | 226 kts | 67° |
| 2026-05-07 19:04 | 38.35732 | -0.29172 | 9197 ft | 232 kts | 67° |
| 2026-05-07 19:04 | 38.36340 | -0.27242 | 9621 ft | 235 kts | 66° |
| 2026-05-07 19:04 | 38.36976 | -0.25317 | 10015 ft | 237 kts | 66° |
| 2026-05-07 19:05 | 38.37622 | -0.23382 | 10398 ft | 239 kts | 66° |
| 2026-05-07 19:05 | 38.38277 | -0.21415 | 10780 ft | 241 kts | 66° |
| 2026-05-07 19:05 | 38.38933 | -0.19443 | 11168 ft | 243 kts | 66° |
| 2026-05-07 19:05 | 38.39587 | -0.17476 | 11518 ft | 245 kts | 66° |
| 2026-05-07 19:06 | 38.40254 | -0.15465 | 11905 ft | 247 kts | 66° |
| 2026-05-07 19:06 | 38.41601 | -0.11398 | 12640 ft | 251 kts | 66° |
| 2026-05-07 19:06 | 38.42283 | -0.09334 | 13007 ft | 253 kts | 66° |
| 2026-05-07 19:07 | 38.42970 | -0.07254 | 13374 ft | 255 kts | 66° |
| 2026-05-07 19:07 | 38.43663 | -0.05156 | 13734 ft | 257 kts | 66° |
| 2026-05-07 19:07 | 38.44441 | -0.03100 | 14033 ft | 259 kts | 51° |
| 2026-05-07 19:07 | 38.45831 | -0.01714 | 14317 ft | 254 kts | 18° |
| 2026-05-07 19:08 | 38.47535 | -0.01296 | 14668 ft | 249 kts | 359° |
| 2026-05-07 19:08 | 38.49280 | -0.01252 | 14978 ft | 250 kts | 356° |
| 2026-05-07 19:08 | 38.50999 | -0.01258 | 15284 ft | 252 kts | 356° |
| 2026-05-07 19:08 | 38.52762 | -0.01270 | 15607 ft | 253 kts | 356° |
| 2026-05-07 19:09 | 38.54526 | -0.01279 | 15921 ft | 254 kts | 356° |
| 2026-05-07 19:09 | 38.56300 | -0.01283 | 16236 ft | 256 kts | 356° |
| 2026-05-07 19:09 | 38.58088 | -0.01283 | 16595 ft | 254 kts | 356° |
| 2026-05-07 19:09 | 38.59836 | -0.01279 | 17025 ft | 250 kts | 355° |
| 2026-05-07 19:10 | 38.61562 | -0.01272 | 17452 ft | 245 kts | 355° |
| 2026-05-07 19:10 | 38.63257 | -0.01263 | 17886 ft | 240 kts | 355° |
| 2026-05-07 19:10 | 38.64910 | -0.01254 | 18313 ft | 235 kts | 355° |
| 2026-05-07 19:10 | 38.66558 | -0.01247 | 18460 ft | 242 kts | 355° |
| 2026-05-07 19:11 | 38.68263 | -0.01241 | 18621 ft | 247 kts | 355° |
| 2026-05-07 19:11 | 38.69398 | -0.01235 | 18779 ft | 247 kts | 356° |
| 2026-05-07 19:11 | 38.71131 | -0.01225 | 19015 ft | 249 kts | 355° |
| 2026-05-07 19:11 | 38.73449 | -0.01210 | 19330 ft | 249 kts | 355° |
| 2026-05-07 19:12 | 38.75170 | -0.01199 | 19570 ft | 250 kts | 355° |
| 2026-05-07 19:12 | 38.76348 | -0.01192 | 19736 ft | 251 kts | 355° |
| 2026-05-07 19:12 | 38.78078 | -0.01181 | 19974 ft | 251 kts | 355° |
| 2026-05-07 19:12 | 38.79830 | -0.01170 | 20221 ft | 252 kts | 355° |
| 2026-05-07 19:13 | 38.81585 | -0.01158 | 20468 ft | 252 kts | 355° |
| 2026-05-07 19:13 | 38.83341 | -0.01146 | 20714 ft | 252 kts | 355° |
| 2026-05-07 19:13 | 38.85099 | -0.01134 | 20971 ft | 252 kts | 354° |
| 2026-05-07 19:13 | 38.86850 | -0.01123 | 21222 ft | 252 kts | 354° |
| 2026-05-07 19:14 | 38.88607 | -0.01111 | 21474 ft | 251 kts | 354° |
| 2026-05-07 19:14 | 38.90355 | -0.01099 | 21728 ft | 251 kts | 356° |
| 2026-05-07 19:14 | 38.92096 | -0.01088 | 21976 ft | 250 kts | 356° |
| 2026-05-07 19:14 | 38.93832 | -0.01075 | 22234 ft | 249 kts | 356° |
| 2026-05-07 19:15 | 38.95556 | -0.01063 | 22494 ft | 247 kts | 356° |
| 2026-05-07 19:15 | 38.97264 | -0.01051 | 22747 ft | 245 kts | 356° |
| 2026-05-07 19:15 | 38.98965 | -0.01040 | 23007 ft | 242 kts | 355° |
| 2026-05-07 19:15 | 39.00635 | -0.01028 | 23261 ft | 239 kts | 355° |
| 2026-05-07 19:16 | 39.02257 | -0.01017 | 23501 ft | 235 kts | 355° |
| 2026-05-07 19:16 | 39.03875 | -0.01005 | 23716 ft | 230 kts | 355° |
| 2026-05-07 19:16 | 39.05499 | -0.00996 | 23748 ft | 236 kts | 355° |
| 2026-05-07 19:16 | 39.07158 | -0.00988 | 23795 ft | 241 kts | 355° |
| 2026-05-07 19:17 | 39.08855 | -0.00979 | 23855 ft | 246 kts | 355° |
| 2026-05-07 19:17 | 39.10587 | -0.00969 | 23907 ft | 252 kts | 355° |
| 2026-05-07 19:17 | 39.12330 | -0.00956 | 24178 ft | 242 kts | 354° |
| 2026-05-07 19:17 | 39.13940 | -0.00937 | 24696 ft | 221 kts | 354° |
| 2026-05-07 19:18 | 39.15398 | -0.00919 | 25056 ft | 204 kts | 353° |
| 2026-05-07 19:18 | 39.16880 | -0.00917 | 24717 ft | 228 kts | 353° |
| 2026-05-07 19:18 | 39.18631 | -0.00926 | 23906 ft | 277 kts | 355° |
| 2026-05-07 19:18 | 39.20745 | -0.00925 | 22923 ft | 327 kts | 358° |
| 2026-05-07 19:19 | 39.23156 | -0.00906 | 22394 ft | 361 kts | 358° |
| 2026-05-07 19:19 | 39.25691 | -0.00877 | 22854 ft | 363 kts | 358° |
| 2026-05-07 19:19 | 39.28197 | -0.00849 | 23644 ft | 356 kts | 358° |
| 2026-05-07 19:19 | 39.30625 | -0.00828 | 24266 ft | 351 kts | 357° |
| 2026-05-07 19:20 | 39.33105 | -0.00813 | 24420 ft | 363 kts | 356° |
| 2026-05-07 19:20 | 39.35658 | -0.00686 | 24675 ft | 373 kts | 7° |
| 2026-05-07 19:20 | 39.38220 | 0.00096 | 24925 ft | 382 kts | 13° |
| 2026-05-07 19:20 | 39.40802 | 0.01076 | 25177 ft | 390 kts | 14° |
| 2026-05-07 19:21 | 39.43423 | 0.02111 | 25433 ft | 396 kts | 14° |
| 2026-05-07 19:21 | 39.46079 | 0.03155 | 25694 ft | 403 kts | 14° |
| 2026-05-07 19:21 | 39.48790 | 0.04201 | 25958 ft | 409 kts | 13° |
| 2026-05-07 19:21 | 39.51540 | 0.05245 | 26208 ft | 414 kts | 13° |
| 2026-05-07 19:22 | 39.54319 | 0.06288 | 26529 ft | 418 kts | 12° |
| 2026-05-07 19:22 | 39.57125 | 0.07333 | 26919 ft | 419 kts | 12° |
| 2026-05-07 19:22 | 39.59931 | 0.08376 | 27314 ft | 421 kts | 12° |
| 2026-05-07 19:22 | 39.62766 | 0.09428 | 27706 ft | 423 kts | 12° |
| 2026-05-07 19:23 | 39.65589 | 0.10477 | 28101 ft | 424 kts | 12° |
| 2026-05-07 19:23 | 39.68430 | 0.11533 | 28509 ft | 425 kts | 11° |
| 2026-05-07 19:23 | 39.71241 | 0.12579 | 28915 ft | 425 kts | 11° |
| 2026-05-07 19:23 | 39.74088 | 0.13640 | 29337 ft | 425 kts | 11° |
| 2026-05-07 19:24 | 39.76933 | 0.14701 | 29757 ft | 425 kts | 11° |
| 2026-05-07 19:24 | 39.79771 | 0.15760 | 30154 ft | 425 kts | 10° |
| 2026-05-07 19:24 | 39.82609 | 0.16820 | 30574 ft | 422 kts | 11° |
| 2026-05-07 19:24 | 39.85414 | 0.17870 | 31058 ft | 418 kts | 11° |
| 2026-05-07 19:25 | 39.88202 | 0.18915 | 31543 ft | 414 kts | 11° |
| 2026-05-07 19:25 | 39.90956 | 0.19947 | 32038 ft | 409 kts | 10° |
| 2026-05-07 19:25 | 39.93674 | 0.20966 | 32547 ft | 403 kts | 10° |
| 2026-05-07 19:25 | 39.96350 | 0.21970 | 33047 ft | 397 kts | 9° |
| 2026-05-07 19:26 | 39.98989 | 0.22961 | 33565 ft | 391 kts | 9° |
| 2026-05-07 19:26 | 40.01582 | 0.23935 | 33997 ft | 388 kts | 9° |
| 2026-05-07 19:26 | 40.06866 | 0.25907 | 34006 ft | 402 kts | 10° |
| 2026-05-07 19:27 | 40.12352 | 0.27963 | 34013 ft | 416 kts | 10° |
| 2026-05-07 19:27 | 40.17980 | 0.30083 | 34013 ft | 430 kts | 10° |
| 2026-05-07 19:28 | 40.23808 | 0.32285 | 34009 ft | 442 kts | 11° |
| 2026-05-07 19:28 | 40.29812 | 0.34556 | 34003 ft | 455 kts | 12° |
| 2026-05-07 19:29 | 40.35986 | 0.36895 | 33999 ft | 466 kts | 12° |
| 2026-05-07 19:29 | 40.42293 | 0.39293 | 33985 ft | 477 kts | 13° |
| 2026-05-07 19:30 | 40.48726 | 0.41747 | 34015 ft | 485 kts | 13° |
| 2026-05-07 19:30 | 40.55255 | 0.44245 | 33991 ft | 491 kts | 14° |
| 2026-05-07 19:31 | 40.61738 | 0.46732 | 33974 ft | 485 kts | 13° |
| 2026-05-07 19:31 | 40.68174 | 0.49204 | 33996 ft | 480 kts | 13° |
| 2026-05-07 19:32 | 40.74588 | 0.51669 | 33989 ft | 479 kts | 13° |
| 2026-05-07 19:32 | 40.80993 | 0.54136 | 34004 ft | 479 kts | 13° |
| 2026-05-07 19:33 | 40.87358 | 0.56592 | 34006 ft | 483 kts | 13° |
| 2026-05-07 19:33 | 40.93916 | 0.59127 | 33996 ft | 491 kts | 14° |
| 2026-05-07 19:34 | 41.00512 | 0.61685 | 34001 ft | 496 kts | 14° |
| 2026-05-07 19:34 | 41.07099 | 0.64246 | 33980 ft | 494 kts | 14° |
| 2026-05-07 19:35 | 41.13688 | 0.66811 | 34000 ft | 493 kts | 14° |
| 2026-05-07 19:35 | 41.20276 | 0.69374 | 33993 ft | 494 kts | 15° |
| 2026-05-07 19:36 | 41.26876 | 0.71945 | 33993 ft | 494 kts | 15° |
| 2026-05-07 19:36 | 41.33483 | 0.74525 | 33986 ft | 495 kts | 15° |
| 2026-05-07 19:37 | 41.40052 | 0.77097 | 33972 ft | 498 kts | 15° |
| 2026-05-07 19:37 | 41.46760 | 0.79730 | 33992 ft | 505 kts | 16° |
| 2026-05-07 19:38 | 41.53552 | 0.82401 | 33995 ft | 510 kts | 16° |
| 2026-05-07 19:38 | 41.60344 | 0.85078 | 33979 ft | 508 kts | 16° |
| 2026-05-07 19:39 | 41.67073 | 0.87737 | 33978 ft | 507 kts | 16° |
| 2026-05-07 19:39 | 41.73837 | 0.90414 | 33987 ft | 507 kts | 16° |
| 2026-05-07 19:40 | 41.80613 | 0.93103 | 34007 ft | 507 kts | 15° |
| 2026-05-07 19:40 | 41.87361 | 0.95786 | 33982 ft | 506 kts | 16° |
| 2026-05-07 19:41 | 41.94119 | 0.98479 | 33972 ft | 506 kts | 16° |
| 2026-05-07 19:41 | 42.00854 | 1.01170 | 33971 ft | 505 kts | 15° |
| 2026-05-07 19:42 | 42.07578 | 1.03862 | 33970 ft | 503 kts | 15° |
| 2026-05-07 19:42 | 42.14311 | 1.06405 | 33962 ft | 502 kts | 7° |
| 2026-05-07 19:43 | 42.17759 | 1.06491 | 34008 ft | 495 kts | 352° |
| 2026-05-07 19:43 | 42.21198 | 1.06020 | 34026 ft | 496 kts | 352° |
| 2026-05-07 19:43 | 42.28048 | 1.05115 | 34012 ft | 493 kts | 352° |
| 2026-05-07 19:44 | 42.34879 | 1.04340 | 34010 ft | 493 kts | 353° |
| 2026-05-07 19:44 | 42.41721 | 1.03597 | 34031 ft | 493 kts | 353° |
| 2026-05-07 19:45 | 42.48533 | 1.02852 | 34015 ft | 494 kts | 353° |
| 2026-05-07 19:45 | 42.55400 | 1.02109 | 34000 ft | 494 kts | 353° |
| 2026-05-07 19:46 | 42.62240 | 1.01366 | 34011 ft | 493 kts | 353° |
| 2026-05-07 19:46 | 42.69085 | 1.00620 | 34009 ft | 493 kts | 353° |
| 2026-05-07 19:47 | 42.75920 | 0.99873 | 33993 ft | 493 kts | 353° |
| 2026-05-07 19:47 | 42.82749 | 0.99125 | 33991 ft | 492 kts | 353° |
| 2026-05-07 19:48 | 42.89553 | 0.98378 | 33985 ft | 493 kts | 353° |
| 2026-05-07 19:48 | 42.96384 | 0.97629 | 33990 ft | 493 kts | 353° |
| 2026-05-07 19:49 | 43.03217 | 0.96876 | 33991 ft | 493 kts | 353° |
| 2026-05-07 19:49 | 43.10047 | 0.96121 | 33975 ft | 493 kts | 353° |
| 2026-05-07 19:50 | 43.16892 | 0.95364 | 33975 ft | 492 kts | 353° |
| 2026-05-07 19:50 | 43.23731 | 0.94605 | 33977 ft | 493 kts | 353° |
| 2026-05-07 19:51 | 43.30584 | 0.93843 | 33966 ft | 493 kts | 353° |
| 2026-05-07 19:51 | 43.37416 | 0.93082 | 33965 ft | 493 kts | 353° |
| 2026-05-07 19:52 | 43.44201 | 0.91913 | 33963 ft | 488 kts | 341° |
| 2026-05-07 19:52 | 43.50508 | 0.88707 | 33968 ft | 485 kts | 334° |
| 2026-05-07 19:53 | 43.56749 | 0.85144 | 33964 ft | 486 kts | 335° |
| 2026-05-07 19:53 | 43.63084 | 0.81819 | 33976 ft | 487 kts | 336° |
| 2026-05-07 19:54 | 43.69480 | 0.78663 | 33961 ft | 489 kts | 337° |
| 2026-05-07 19:54 | 43.75911 | 0.75536 | 33976 ft | 488 kts | 338° |
| 2026-05-07 19:55 | 43.82303 | 0.72415 | 33962 ft | 485 kts | 337° |
| 2026-05-07 19:55 | 43.88607 | 0.69317 | 33959 ft | 483 kts | 338° |
| 2026-05-07 19:56 | 43.94940 | 0.66192 | 33946 ft | 482 kts | 338° |
| 2026-05-07 19:56 | 44.01251 | 0.63071 | 33948 ft | 481 kts | 338° |
| 2026-05-07 19:57 | 44.07548 | 0.59950 | 33952 ft | 480 kts | 338° |
| 2026-05-07 19:57 | 44.13849 | 0.56820 | 33935 ft | 480 kts | 338° |
| 2026-05-07 19:58 | 44.19085 | 0.54215 | 33944 ft | 480 kts | 338° |
| 2026-05-07 19:58 | 44.25378 | 0.51076 | 33953 ft | 481 kts | 338° |
| 2026-05-07 19:59 | 44.31681 | 0.47926 | 33963 ft | 482 kts | 338° |
| 2026-05-07 19:59 | 44.38007 | 0.44756 | 33960 ft | 482 kts | 338° |
| 2026-05-07 20:00 | 44.44327 | 0.41583 | 33963 ft | 483 kts | 338° |
| 2026-05-07 20:00 | 44.50665 | 0.38393 | 33974 ft | 484 kts | 338° |
| 2026-05-07 20:01 | 44.57005 | 0.35195 | 33959 ft | 484 kts | 338° |
| 2026-05-07 20:01 | 44.63331 | 0.31997 | 33952 ft | 483 kts | 338° |
| 2026-05-07 20:02 | 44.69653 | 0.28793 | 33954 ft | 483 kts | 338° |
| 2026-05-07 20:02 | 44.75931 | 0.25604 | 33952 ft | 483 kts | 338° |
| 2026-05-07 20:03 | 44.82253 | 0.22385 | 33954 ft | 483 kts | 338° |
| 2026-05-07 20:03 | 44.88575 | 0.19158 | 33956 ft | 483 kts | 338° |
| 2026-05-07 20:04 | 44.94910 | 0.15917 | 33958 ft | 483 kts | 338° |
| 2026-05-07 20:04 | 45.01222 | 0.12680 | 33973 ft | 483 kts | 338° |
| 2026-05-07 20:05 | 45.07484 | 0.09215 | 33960 ft | 482 kts | 333° |
| 2026-05-07 20:05 | 45.13451 | 0.05090 | 33969 ft | 481 kts | 330° |
| 2026-05-07 20:06 | 45.19447 | 0.00837 | 33976 ft | 481 kts | 331° |
| 2026-05-07 20:06 | 45.25465 | -0.03325 | 33976 ft | 482 kts | 332° |
| 2026-05-07 20:07 | 45.31529 | -0.07467 | 33977 ft | 482 kts | 332° |
| 2026-05-07 20:07 | 45.37564 | -0.11592 | 33971 ft | 482 kts | 332° |
| 2026-05-07 20:08 | 45.43604 | -0.15731 | 33972 ft | 482 kts | 332° |
| 2026-05-07 20:08 | 45.49937 | -0.18965 | 33978 ft | 485 kts | 341° |
| 2026-05-07 20:09 | 45.56456 | -0.21562 | 33974 ft | 486 kts | 342° |
| 2026-05-07 20:10 | 45.66200 | -0.25656 | 33976 ft | 487 kts | 340° |
| 2026-05-07 20:10 | 45.72672 | -0.28543 | 33977 ft | 487 kts | 340° |
| 2026-05-07 20:11 | 45.79145 | -0.31467 | 33987 ft | 487 kts | 340° |
| 2026-05-07 20:11 | 45.85619 | -0.34394 | 33987 ft | 488 kts | 340° |
| 2026-05-07 20:12 | 45.92056 | -0.37305 | 33975 ft | 488 kts | 340° |
| 2026-05-07 20:12 | 45.98543 | -0.40242 | 33986 ft | 488 kts | 340° |
| 2026-05-07 20:13 | 46.05028 | -0.43187 | 33977 ft | 488 kts | 340° |
| 2026-05-07 20:13 | 46.11512 | -0.46138 | 33972 ft | 488 kts | 340° |
| 2026-05-07 20:14 | 46.17980 | -0.49088 | 34002 ft | 487 kts | 339° |
| 2026-05-07 20:14 | 46.24446 | -0.52046 | 33981 ft | 488 kts | 339° |
| 2026-05-07 20:15 | 46.30873 | -0.54994 | 33984 ft | 488 kts | 339° |
| 2026-05-07 20:15 | 46.37380 | -0.57985 | 33998 ft | 488 kts | 339° |
| 2026-05-07 20:16 | 46.43812 | -0.60949 | 33989 ft | 488 kts | 339° |
| 2026-05-07 20:16 | 46.50293 | -0.63943 | 33986 ft | 488 kts | 339° |
| 2026-05-07 20:17 | 46.56754 | -0.66935 | 33989 ft | 487 kts | 339° |
| 2026-05-07 20:17 | 46.63224 | -0.69939 | 33985 ft | 487 kts | 339° |
| 2026-05-07 20:18 | 46.69683 | -0.72946 | 33989 ft | 487 kts | 339° |
| 2026-05-07 20:18 | 46.76140 | -0.75958 | 33993 ft | 487 kts | 339° |
| 2026-05-07 20:19 | 46.82598 | -0.78980 | 33993 ft | 487 kts | 339° |
| 2026-05-07 20:19 | 46.89038 | -0.82000 | 34013 ft | 486 kts | 339° |
| 2026-05-07 20:20 | 46.95435 | -0.85007 | 33989 ft | 485 kts | 339° |
| 2026-05-07 20:20 | 47.01847 | -0.88029 | 33989 ft | 484 kts | 339° |
| 2026-05-07 20:21 | 47.08258 | -0.91059 | 33994 ft | 483 kts | 339° |
| 2026-05-07 20:21 | 47.14636 | -0.94082 | 33991 ft | 483 kts | 339° |
| 2026-05-07 20:22 | 47.21025 | -0.97116 | 34004 ft | 483 kts | 339° |
| 2026-05-07 20:22 | 47.27423 | -1.00163 | 33988 ft | 483 kts | 339° |
| 2026-05-07 20:23 | 47.33805 | -1.03210 | 33993 ft | 482 kts | 339° |
| 2026-05-07 20:23 | 47.40193 | -1.06267 | 33999 ft | 482 kts | 339° |
| 2026-05-07 20:24 | 47.46537 | -1.09311 | 33988 ft | 482 kts | 339° |
| 2026-05-07 20:24 | 47.52970 | -1.12167 | 33975 ft | 485 kts | 348° |
| 2026-05-07 20:25 | 47.59699 | -1.13223 | 34005 ft | 487 kts | 353° |
| 2026-05-07 20:25 | 47.66471 | -1.13927 | 33995 ft | 487 kts | 353° |
| 2026-05-07 20:26 | 47.73284 | -1.14742 | 34001 ft | 487 kts | 352° |
| 2026-05-07 20:26 | 47.80036 | -1.15660 | 34011 ft | 487 kts | 352° |
| 2026-05-07 20:27 | 47.86725 | -1.16607 | 34006 ft | 487 kts | 352° |
| 2026-05-07 20:27 | 47.93460 | -1.17564 | 34008 ft | 487 kts | 352° |
| 2026-05-07 20:28 | 48.00218 | -1.18521 | 34012 ft | 487 kts | 352° |
| 2026-05-07 20:28 | 48.06968 | -1.19476 | 34009 ft | 487 kts | 352° |
| 2026-05-07 20:29 | 48.13710 | -1.20432 | 34012 ft | 486 kts | 352° |
| 2026-05-07 20:29 | 48.20451 | -1.21391 | 34011 ft | 486 kts | 352° |
| 2026-05-07 20:30 | 48.27187 | -1.22352 | 34015 ft | 486 kts | 352° |
| 2026-05-07 20:30 | 48.33913 | -1.23314 | 34013 ft | 486 kts | 352° |
| 2026-05-07 20:31 | 48.40651 | -1.24280 | 34020 ft | 486 kts | 352° |
| 2026-05-07 20:31 | 48.47372 | -1.25247 | 34018 ft | 485 kts | 352° |
| 2026-05-07 20:32 | 48.54102 | -1.26217 | 34018 ft | 485 kts | 352° |
| 2026-05-07 20:32 | 48.60819 | -1.27188 | 34018 ft | 485 kts | 352° |
| 2026-05-07 20:33 | 48.67548 | -1.28163 | 34028 ft | 484 kts | 353° |
| 2026-05-07 20:33 | 48.74242 | -1.29136 | 34021 ft | 483 kts | 352° |
| 2026-05-07 20:34 | 48.80932 | -1.30111 | 34024 ft | 483 kts | 352° |
| 2026-05-07 20:34 | 48.87619 | -1.31088 | 34025 ft | 483 kts | 352° |
| 2026-05-07 20:35 | 48.94298 | -1.32067 | 34034 ft | 484 kts | 352° |
| 2026-05-07 20:35 | 49.01012 | -1.33053 | 34029 ft | 484 kts | 352° |
| 2026-05-07 20:36 | 49.07714 | -1.34040 | 34041 ft | 484 kts | 352° |
| 2026-05-07 20:36 | 49.14417 | -1.35030 | 34021 ft | 483 kts | 353° |
| 2026-05-07 20:37 | 49.21111 | -1.36021 | 34035 ft | 482 kts | 353° |
| 2026-05-07 20:37 | 49.26658 | -1.36845 | 34033 ft | 482 kts | 353° |
| 2026-05-07 20:38 | 49.33351 | -1.37842 | 34034 ft | 483 kts | 352° |
| 2026-05-07 20:38 | 49.40049 | -1.38841 | 34045 ft | 483 kts | 352° |
| 2026-05-07 20:39 | 49.46757 | -1.39845 | 34047 ft | 484 kts | 352° |
| 2026-05-07 20:39 | 49.53457 | -1.40851 | 34066 ft | 484 kts | 352° |
| 2026-05-07 20:40 | 49.60197 | -1.41788 | 34050 ft | 486 kts | 356° |
| 2026-05-07 20:40 | 49.66882 | -1.41374 | 34061 ft | 488 kts | 3° |
| 2026-05-07 20:41 | 49.73755 | -1.40475 | 34053 ft | 489 kts | 3° |
| 2026-05-07 20:41 | 49.80528 | -1.39753 | 34055 ft | 489 kts | 2° |
| 2026-05-07 20:42 | 49.87325 | -1.39142 | 34054 ft | 489 kts | 1° |
| 2026-05-07 20:42 | 49.94125 | -1.38537 | 34052 ft | 489 kts | 1° |
| 2026-05-07 20:43 | 50.00934 | -1.37891 | 34055 ft | 490 kts | 4° |
| 2026-05-07 20:43 | 50.07647 | -1.36410 | 34045 ft | 491 kts | 8° |
| 2026-05-07 20:44 | 50.14376 | -1.34546 | 34053 ft | 490 kts | 8° |
| 2026-05-07 20:44 | 50.21097 | -1.32784 | 34061 ft | 489 kts | 8° |
| 2026-05-07 20:45 | 50.27822 | -1.31108 | 34057 ft | 489 kts | 7° |
| 2026-05-07 20:45 | 50.34543 | -1.29444 | 34061 ft | 489 kts | 7° |
| 2026-05-07 20:46 | 50.41263 | -1.27767 | 34061 ft | 489 kts | 7° |
| 2026-05-07 20:46 | 50.47985 | -1.26080 | 34063 ft | 489 kts | 8° |
| 2026-05-07 20:46 | 50.51261 | -1.24658 | 34031 ft | 491 kts | 25° |
| 2026-05-07 20:47 | 50.54201 | -1.21946 | 34083 ft | 490 kts | 33° |
| 2026-05-07 20:47 | 50.59850 | -1.16109 | 34068 ft | 491 kts | 33° |
| 2026-05-07 20:48 | 50.65601 | -1.10259 | 34077 ft | 491 kts | 32° |
| 2026-05-07 20:48 | 50.71374 | -1.04477 | 34067 ft | 492 kts | 32° |
| 2026-05-07 20:49 | 50.77148 | -0.98690 | 34070 ft | 491 kts | 32° |
| 2026-05-07 20:49 | 50.82971 | -0.93081 | 34040 ft | 490 kts | 22° |
| 2026-05-07 20:50 | 50.89403 | -0.89572 | 34080 ft | 488 kts | 15° |
| 2026-05-07 20:50 | 50.95923 | -0.86471 | 34070 ft | 488 kts | 15° |
| 2026-05-07 20:51 | 51.02366 | -0.83273 | 34070 ft | 488 kts | 16° |
| 2026-05-07 20:51 | 51.08826 | -0.79936 | 34077 ft | 488 kts | 17° |
| 2026-05-07 20:52 | 51.15255 | -0.76571 | 34079 ft | 488 kts | 17° |
| 2026-05-07 20:52 | 51.21718 | -0.73180 | 34085 ft | 488 kts | 17° |
| 2026-05-07 20:53 | 51.28178 | -0.69788 | 34082 ft | 488 kts | 17° |
| 2026-05-07 20:53 | 51.34591 | -0.66414 | 34087 ft | 488 kts | 17° |
| 2026-05-07 20:54 | 51.41026 | -0.63017 | 34072 ft | 486 kts | 16° |
| 2026-05-07 20:54 | 51.47444 | -0.59619 | 34091 ft | 486 kts | 16° |
| 2026-05-07 20:55 | 51.53825 | -0.56231 | 34088 ft | 486 kts | 17° |
| 2026-05-07 20:55 | 51.60255 | -0.52806 | 34085 ft | 486 kts | 16° |
| 2026-05-07 20:56 | 51.66656 | -0.49386 | 34076 ft | 485 kts | 16° |
| 2026-05-07 20:56 | 51.73077 | -0.45946 | 34081 ft | 485 kts | 16° |
| 2026-05-07 20:57 | 51.79598 | -0.43682 | 34087 ft | 477 kts | 353° |
| 2026-05-07 20:57 | 51.82842 | -0.44556 | 34079 ft | 472 kts | 339° |
| 2026-05-07 20:57 | 51.85818 | -0.46677 | 34096 ft | 465 kts | 326° |
| 2026-05-07 20:57 | 51.88561 | -0.49448 | 33866 ft | 467 kts | 324° |
| 2026-05-07 20:58 | 51.91319 | -0.52311 | 33169 ft | 470 kts | 325° |
| 2026-05-07 20:58 | 51.94076 | -0.55095 | 32256 ft | 469 kts | 326° |
| 2026-05-07 20:58 | 51.96848 | -0.57816 | 31843 ft | 460 kts | 326° |
| 2026-05-07 20:58 | 51.99554 | -0.60440 | 31774 ft | 446 kts | 326° |
| 2026-05-07 20:59 | 52.02188 | -0.62997 | 31485 ft | 437 kts | 326° |
| 2026-05-07 20:59 | 52.04784 | -0.65528 | 30976 ft | 434 kts | 326° |
| 2026-05-07 20:59 | 52.07369 | -0.68061 | 30452 ft | 432 kts | 326° |
| 2026-05-07 20:59 | 52.09934 | -0.70578 | 29974 ft | 429 kts | 326° |
| 2026-05-07 21:00 | 52.12474 | -0.73073 | 29436 ft | 425 kts | 326° |
| 2026-05-07 21:00 | 52.14992 | -0.75557 | 28882 ft | 422 kts | 326° |
| 2026-05-07 21:00 | 52.17499 | -0.78042 | 28351 ft | 419 kts | 326° |
| 2026-05-07 21:00 | 52.19976 | -0.80501 | 27826 ft | 416 kts | 326° |
| 2026-05-07 21:01 | 52.22449 | -0.82957 | 27316 ft | 413 kts | 326° |
| 2026-05-07 21:01 | 52.24890 | -0.85384 | 26814 ft | 410 kts | 326° |
| 2026-05-07 21:01 | 52.27353 | -0.87830 | 25822 ft | 418 kts | 326° |
| 2026-05-07 21:01 | 52.29882 | -0.90342 | 24533 ft | 435 kts | 326° |
| 2026-05-07 21:02 | 52.32506 | -0.92950 | 23219 ft | 448 kts | 326° |
| 2026-05-07 21:02 | 52.35164 | -0.95590 | 22055 ft | 455 kts | 326° |
| 2026-05-07 21:02 | 52.37857 | -0.98267 | 21247 ft | 451 kts | 326° |
| 2026-05-07 21:02 | 52.40517 | -1.00914 | 20584 ft | 445 kts | 327° |
| 2026-05-07 21:03 | 52.43160 | -1.03551 | 19858 ft | 441 kts | 327° |
| 2026-05-07 21:03 | 52.45774 | -1.06165 | 19130 ft | 438 kts | 327° |
| 2026-05-07 21:03 | 52.48364 | -1.08758 | 18448 ft | 435 kts | 327° |
| 2026-05-07 21:03 | 52.50939 | -1.11353 | 17697 ft | 431 kts | 326° |
| 2026-05-07 21:04 | 52.53481 | -1.13934 | 16984 ft | 427 kts | 326° |
| 2026-05-07 21:04 | 52.55994 | -1.16489 | 16380 ft | 422 kts | 326° |
| 2026-05-07 21:04 | 52.58516 | -1.19047 | 16194 ft | 426 kts | 326° |
| 2026-05-07 21:04 | 52.61027 | -1.21589 | 16067 ft | 423 kts | 327° |
| 2026-05-07 21:05 | 52.63534 | -1.24127 | 16037 ft | 422 kts | 326° |
| 2026-05-07 21:05 | 52.66007 | -1.26636 | 16032 ft | 423 kts | 326° |
| 2026-05-07 21:05 | 52.68513 | -1.29183 | 16031 ft | 423 kts | 326° |
| 2026-05-07 21:05 | 52.71019 | -1.31733 | 16021 ft | 423 kts | 326° |
| 2026-05-07 21:06 | 52.73522 | -1.34279 | 16049 ft | 423 kts | 326° |
| 2026-05-07 21:06 | 52.76028 | -1.36830 | 16063 ft | 423 kts | 326° |
| 2026-05-07 21:06 | 52.78533 | -1.39382 | 16045 ft | 423 kts | 326° |
| 2026-05-07 21:06 | 52.81044 | -1.41946 | 16025 ft | 424 kts | 326° |
| 2026-05-07 21:07 | 52.83558 | -1.44516 | 15807 ft | 424 kts | 326° |
| 2026-05-07 21:07 | 52.86055 | -1.47072 | 15544 ft | 421 kts | 326° |
| 2026-05-07 21:07 | 52.88548 | -1.49628 | 15301 ft | 420 kts | 326° |
| 2026-05-07 21:07 | 52.91031 | -1.52177 | 15063 ft | 418 kts | 326° |
| 2026-05-07 21:08 | 52.93500 | -1.54715 | 14815 ft | 417 kts | 326° |
| 2026-05-07 21:08 | 52.95964 | -1.57253 | 14571 ft | 416 kts | 326° |
| 2026-05-07 21:08 | 52.98395 | -1.59759 | 14331 ft | 415 kts | 326° |
| 2026-05-07 21:08 | 53.00883 | -1.62326 | 14092 ft | 414 kts | 326° |
| 2026-05-07 21:09 | 53.03322 | -1.64847 | 13842 ft | 414 kts | 326° |
| 2026-05-07 21:09 | 53.05689 | -1.67461 | 13569 ft | 411 kts | 318° |
| 2026-05-07 21:09 | 53.07605 | -1.70927 | 13310 ft | 406 kts | 306° |
| 2026-05-07 21:09 | 53.09347 | -1.74586 | 13043 ft | 404 kts | 307° |
| 2026-05-07 21:10 | 53.11140 | -1.78154 | 12781 ft | 402 kts | 308° |
| 2026-05-07 21:10 | 53.12955 | -1.81679 | 12520 ft | 399 kts | 308° |
| 2026-05-07 21:10 | 53.14758 | -1.85168 | 12253 ft | 397 kts | 308° |
| 2026-05-07 21:10 | 53.16554 | -1.88648 | 11993 ft | 394 kts | 308° |
| 2026-05-07 21:11 | 53.18333 | -1.92106 | 11740 ft | 391 kts | 308° |
| 2026-05-07 21:11 | 53.20099 | -1.95550 | 11480 ft | 388 kts | 308° |
| 2026-05-07 21:11 | 53.24480 | -2.00660 | 10797 ft | 396 kts | 342° |
| 2026-05-07 21:12 | 53.27201 | -2.01206 | 10360 ft | 395 kts | 1° |
| 2026-05-07 21:12 | 53.29847 | -2.00251 | 9917 ft | 394 kts | 21° |
| 2026-05-07 21:12 | 53.32123 | -1.97991 | 9428 ft | 378 kts | 37° |
| 2026-05-07 21:12 | 53.34066 | -1.95215 | 8956 ft | 362 kts | 41° |
| 2026-05-07 21:13 | 53.35897 | -1.92446 | 8471 ft | 349 kts | 42° |
| 2026-05-07 21:13 | 53.37664 | -1.89746 | 7981 ft | 338 kts | 42° |
| 2026-05-07 21:13 | 53.39365 | -1.87115 | 7527 ft | 328 kts | 44° |
| 2026-05-07 21:13 | 53.41073 | -1.84803 | 7119 ft | 301 kts | 26° |
| 2026-05-07 21:14 | 53.42946 | -1.83988 | 6964 ft | 261 kts | 2° |
| 2026-05-07 21:14 | 53.44726 | -1.83939 | 6401 ft | 246 kts | 349° |
| 2026-05-07 21:14 | 53.46203 | -1.84778 | 6495 ft | 203 kts | 323° |
| 2026-05-07 21:14 | 53.47133 | -1.86248 | 6874 ft | 186 kts | 305° |
| 2026-05-07 21:15 | 53.47909 | -1.88043 | 6964 ft | 187 kts | 298° |
| 2026-05-07 21:15 | 53.48500 | -1.89987 | 6694 ft | 187 kts | 288° |
| 2026-05-07 21:15 | 53.48902 | -1.92035 | 6304 ft | 183 kts | 280° |
| 2026-05-07 21:15 | 53.49105 | -1.94121 | 5828 ft | 180 kts | 269° |
| 2026-05-07 21:16 | 53.49002 | -1.96156 | 5363 ft | 174 kts | 255° |
| 2026-05-07 21:16 | 53.48726 | -1.98098 | 5003 ft | 168 kts | 250° |
| 2026-05-07 21:16 | 53.48377 | -1.99968 | 4822 ft | 167 kts | 246° |
| 2026-05-07 21:16 | 53.47926 | -2.01746 | 4856 ft | 168 kts | 238° |
| 2026-05-07 21:17 | 53.47303 | -2.03422 | 4956 ft | 172 kts | 232° |
| 2026-05-07 21:17 | 53.46580 | -2.05037 | 4654 ft | 172 kts | 229° |
| 2026-05-07 21:17 | 53.45835 | -2.06580 | 4357 ft | 169 kts | 227° |
| 2026-05-07 21:17 | 53.45053 | -2.08039 | 3984 ft | 167 kts | 226° |
| 2026-05-07 21:18 | 53.44533 | -2.08990 | 3733 ft | 166 kts | 226° |
| 2026-05-07 21:18 | 53.43762 | -2.10413 | 3418 ft | 164 kts | 226° |
| 2026-05-07 21:18 | 53.42763 | -2.12303 | 3020 ft | 163 kts | 227° |
| 2026-05-07 21:18 | 53.42025 | -2.13758 | 2666 ft | 165 kts | 228° |
| 2026-05-07 21:19 | 53.41326 | -2.15256 | 2358 ft | 161 kts | 229° |
| 2026-05-07 21:19 | 53.40622 | -2.16718 | 2043 ft | 161 kts | 227° |
| 2026-05-07 21:19 | 53.40155 | -2.17675 | 1927 ft | 161 kts | 227° |
| 2026-05-07 21:19 | 53.39442 | -2.19129 | 1628 ft | 158 kts | 228° |
| 2026-05-07 21:20 | 53.38772 | -2.20526 | 1236 ft | 150 kts | 227° |
| 2026-05-07 21:20 | 53.38121 | -2.21845 | 1018 ft | 149 kts | 227° |
| 2026-05-07 21:20 | 53.37448 | -2.23190 | 749 ft | 150 kts | 227° |
| 2026-05-07 21:20 | 53.36805 | -2.24505 | 512 ft | 148 kts | 230° |
| 2026-05-07 21:21 | 53.36183 | -2.25811 | 318 ft | 146 kts | 229° |
| 2026-05-07 21:21 | 53.35602 | -2.27008 | 264 ft | 122 kts | 231° |
| 2026-05-07 21:21 | 53.35304 | -2.27653 | 253 ft | 44 kts | 238° |
| 2026-05-07 21:21 | 53.35252 | -2.27977 | 242 ft | 20 kts | 258° |
| 2026-05-07 21:22 | 53.35240 | -2.28079 | 237 ft | 11 kts | 258° |
| 2026-05-07 21:22 | 53.35233 | -2.28172 | 234 ft | 7 kts | 275° |
| 2026-05-07 21:22 | 53.35236 | -2.28191 | 234 ft | 0 kts | 289° |
| 2026-05-07 21:22 | 53.35237 | -2.28195 | 234 ft | 2 kts | 292° |
| 2026-05-07 21:23 | 53.35272 | -2.28226 | 236 ft | 8 kts | 15° |
| 2026-05-07 21:23 | 53.35306 | -2.28176 | 236 ft | 6 kts | 48° |
| 2026-05-07 21:23 | 53.35336 | -2.28118 | 239 ft | 7 kts | 48° |
| 2026-05-07 21:23 | 53.35369 | -2.28059 | 241 ft | 7 kts | 45° |
| 2026-05-07 21:24 | 53.35403 | -2.28004 | 242 ft | 7 kts | 44° |
| 2026-05-07 21:24 | 53.35437 | -2.27951 | 243 ft | 7 kts | 43° |
| 2026-05-07 21:24 | 53.35470 | -2.27899 | 245 ft | 7 kts | 44° |
| 2026-05-07 21:24 | 53.35507 | -2.27839 | 246 ft | 7 kts | 44° |
| 2026-05-07 21:25 | 53.35543 | -2.27781 | 246 ft | 7 kts | 44° |
| 2026-05-07 21:25 | 53.35579 | -2.27723 | 246 ft | 8 kts | 44° |
| 2026-05-07 21:25 | 53.35627 | -2.27645 | 246 ft | 11 kts | 44° |
| 2026-05-07 21:25 | 53.35682 | -2.27545 | 246 ft | 12 kts | 51° |
| 2026-05-07 21:26 | 53.35730 | -2.27443 | 247 ft | 11 kts | 52° |
| 2026-05-07 21:26 | 53.35776 | -2.27346 | 246 ft | 11 kts | 51° |
| 2026-05-07 21:26 | 53.35824 | -2.27247 | 247 ft | 11 kts | 48° |
| 2026-05-07 21:26 | 53.35893 | -2.27228 | 246 ft | 11 kts | 353° |
| 2026-05-07 21:27 | 53.35937 | -2.27221 | 246 ft | 3 kts | 37° |
| 2026-05-07 21:27 | 53.35945 | -2.27187 | 246 ft | 3 kts | 81° |
| 2026-05-07 21:27 | 53.35947 | -2.27150 | 246 ft | 3 kts | 86° |
| 2026-05-07 21:27 | 53.35948 | -2.27135 | 246 ft | 0 kts | 87° |